Time;durP1;ratioP1;P1;durP2;ratioP2;P2;SDS_P1;SDS_P2;PMS_P1;PMS_P2;Temp;Humidity;BMP_temperature;BMP_pressure;BME280_temperature;BME280_humidity;BME280_pressure;Samples;Min_cycle;Max_cycle;Signal;HPM_P1;HPM_P2
2022/12/20 00:00:19;;;;;;;44.83;20.37;;;-0.10;99.90;;;;;;10319235;28;20041;-85
2022/12/20 00:05:20;;;;;;;42.90;19.40;;;-0.10;99.90;;;;;;10318381;28;20050;-85
2022/12/20 00:10:20;;;;;;;46.10;19.60;;;-0.10;99.90;;;;;;10320301;28;20042;-84
2022/12/20 00:15:21;;;;;;;43.53;20.07;;;-0.10;99.90;;;;;;10318105;28;20026;-85
2022/12/20 00:20:22;;;;;;;48.93;20.70;;;-0.10;99.90;;;;;;10313925;28;20038;-85
2022/12/20 00:25:23;;;;;;;44.20;20.07;;;-0.10;99.90;;;;;;10316663;28;20046;-85
2022/12/20 00:30:23;;;;;;;43.77;19.20;;;0.00;99.90;;;;;;10304571;28;20042;-84
2022/12/20 00:35:24;;;;;;;45.03;19.00;;;0.00;99.90;;;;;;10309066;28;20033;-84
2022/12/20 00:40:25;;;;;;;41.93;18.07;;;0.00;99.90;;;;;;10309691;28;20524;-85
2022/12/20 00:45:25;;;;;;;43.50;18.63;;;0.00;99.90;;;;;;10304564;28;20125;-85
2022/12/20 00:50:26;;;;;;;37.20;17.37;;;0.00;99.90;;;;;;10306274;28;20035;-84
2022/12/20 00:55:26;;;;;;;43.53;18.83;;;0.10;99.90;;;;;;10313140;28;20030;-84
2022/12/20 01:00:27;;;;;;;41.30;17.83;;;0.10;99.90;;;;;;10323251;28;20026;-84
2022/12/20 01:05:28;;;;;;;45.40;17.37;;;0.10;99.90;;;;;;10323781;28;20046;-85
2022/12/20 01:10:28;;;;;;;52.87;20.90;;;0.10;99.90;;;;;;10324658;28;20568;-84
2022/12/20 01:15:29;;;;;;;45.33;17.77;;;0.10;99.90;;;;;;10324563;28;20085;-84
2022/12/20 01:20:29;;;;;;;42.80;17.63;;;0.10;99.90;;;;;;10324952;28;20042;-84
2022/12/20 01:25:30;;;;;;;46.30;20.50;;;0.20;99.90;;;;;;10321110;28;20038;-84
2022/12/20 01:30:30;;;;;;;43.77;19.23;;;0.20;99.90;;;;;;10316000;28;20030;-83
2022/12/20 01:35:31;;;;;;;46.90;19.50;;;0.20;99.90;;;;;;10322923;28;20512;-84
2022/12/20 01:40:31;;;;;;;44.63;18.87;;;0.20;99.90;;;;;;10319934;28;20070;-84
2022/12/20 01:45:32;;;;;;;42.20;19.20;;;0.20;99.90;;;;;;10322369;28;20124;-84
2022/12/20 01:50:33;;;;;;;44.23;18.23;;;0.30;99.90;;;;;;10354718;28;20045;-84
2022/12/20 01:55:34;;;;;;;44.90;20.67;;;0.30;99.90;;;;;;10312778;28;20034;-84
2022/12/20 02:00:36;;;;;;;44.13;18.00;;;0.30;99.90;;;;;;10322966;28;20474;-85
2022/12/20 02:05:39;;;;;;;44.00;19.83;;;0.30;99.90;;;;;;10321625;28;20061;-85
2022/12/20 02:10:57;;;;;;;46.17;20.73;;;0.30;99.90;;;;;;10320326;28;20030;-84
2022/12/20 02:15:59;;;;;;;45.63;21.20;;;0.30;99.90;;;;;;10319822;28;20363;-84
2022/12/20 02:21:07;;;;;;;54.77;23.63;;;0.40;99.90;;;;;;10353414;28;20035;-83
2022/12/20 02:26:29;;;;;;;45.90;21.77;;;0.40;99.90;;;;;;10319461;28;20266;-86
2022/12/20 02:31:37;;;;;;;49.27;22.63;;;0.40;99.90;;;;;;10320643;28;20038;-83
2022/12/20 02:36:38;;;;;;;48.60;21.07;;;0.40;99.90;;;;;;10313223;28;20027;-83
2022/12/20 02:41:49;;;;;;;50.33;20.07;;;0.30;99.90;;;;;;10351691;28;20516;-84
2022/12/20 02:46:51;;;;;;;45.43;19.50;;;0.30;99.90;;;;;;10321678;28;20034;-83
2022/12/20 02:51:55;;;;;;;51.27;21.17;;;0.20;99.90;;;;;;10319468;28;20097;-83
2022/12/20 02:57:03;;;;;;;43.63;19.33;;;0.10;99.90;;;;;;10346325;28;20052;-83
2022/12/20 03:02:05;;;;;;;47.03;18.23;;;0.10;99.90;;;;;;10315097;28;20699;-83
2022/12/20 03:07:09;;;;;;;37.20;17.03;;;0.00;99.90;;;;;;10347654;28;20049;-83
2022/12/20 03:12:11;;;;;;;45.57;18.07;;;0.00;99.90;;;;;;10344466;28;20497;-83
2022/12/20 03:17:12;;;;;;;39.50;18.33;;;0.00;99.90;;;;;;10317483;28;20049;-83
2022/12/20 03:22:12;;;;;;;47.87;21.50;;;0.00;99.90;;;;;;10312201;28;20047;-83
2022/12/20 03:27:13;;;;;;;37.07;16.50;;;0.00;99.90;;;;;;10310569;28;20034;-83
2022/12/20 03:32:14;;;;;;;38.93;16.90;;;0.00;99.90;;;;;;10319840;28;20026;-83
2022/12/20 03:37:15;;;;;;;39.97;17.70;;;0.00;99.90;;;;;;10320112;28;20034;-83
2022/12/20 03:42:16;;;;;;;45.23;18.37;;;0.00;99.90;;;;;;10318633;28;20541;-84
2022/12/20 03:47:16;;;;;;;45.17;18.47;;;0.00;99.90;;;;;;10316513;28;20038;-83
2022/12/20 03:52:17;;;;;;;37.27;16.40;;;-0.10;99.90;;;;;;10305971;28;20046;-85
2022/12/20 03:57:17;;;;;;;38.10;17.20;;;-0.10;99.90;;;;;;10317147;28;20036;-85
2022/12/20 04:02:18;;;;;;;48.60;20.80;;;-0.10;99.90;;;;;;10323502;28;20398;-83
2022/12/20 04:07:18;;;;;;;41.53;17.90;;;-0.10;99.90;;;;;;10326637;28;20069;-82
2022/12/20 04:12:19;;;;;;;36.40;15.00;;;-0.10;99.90;;;;;;10349437;28;20044;-83
2022/12/20 04:17:20;;;;;;;36.83;15.43;;;-0.10;99.90;;;;;;10305339;28;20019;-83
2022/12/20 04:22:21;;;;;;;41.37;18.40;;;-0.10;99.90;;;;;;10313709;28;20042;-83
2022/12/20 04:27:22;;;;;;;44.57;18.53;;;0.00;99.90;;;;;;10315909;28;20038;-84
2022/12/20 04:32:22;;;;;;;41.83;16.83;;;0.00;99.90;;;;;;10321187;28;20041;-83
2022/12/20 04:37:23;;;;;;;38.07;16.53;;;0.00;99.90;;;;;;10326586;28;20406;-82
2022/12/20 04:42:24;;;;;;;48.83;18.80;;;0.00;99.90;;;;;;10320963;28;20053;-83
2022/12/20 04:47:25;;;;;;;45.57;18.77;;;0.00;99.90;;;;;;10324841;28;20485;-84
2022/12/20 04:57:44;;;;;;;47.33;17.77;;;0.10;99.90;;;;;;10322495;28;20394;-85
2022/12/20 05:02:45;;;;;;;42.20;18.00;;;0.00;99.90;;;;;;10335426;28;20053;-83
2022/12/20 05:07:45;;;;;;;55.90;23.80;;;0.00;99.90;;;;;;10325476;28;20092;-84
2022/12/20 05:13:39;;;;;;;51.10;20.33;;;0.00;99.90;;;;;;10325028;28;20469;-82
2022/12/20 05:18:40;;;;;;;52.83;20.57;;;0.00;99.90;;;;;;10322708;28;20132;-85
2022/12/20 05:29:00;;;;;;;56.17;22.00;;;-0.10;99.90;;;;;;10325241;28;20153;-85
2022/12/20 05:34:00;;;;;;;50.83;21.50;;;-0.10;99.90;;;;;;10357014;28;20801;-84
2022/12/20 05:39:01;;;;;;;52.13;20.53;;;-0.10;99.90;;;;;;10318728;28;20507;-86
2022/12/20 05:44:02;;;;;;;53.30;22.00;;;-0.10;99.90;;;;;;10317856;28;20038;-85
2022/12/20 05:49:02;;;;;;;50.17;20.47;;;-0.10;99.90;;;;;;10324907;28;20034;-85
2022/12/20 05:54:03;;;;;;;54.13;23.43;;;-0.10;99.90;;;;;;10324994;28;20034;-84
2022/12/20 05:59:03;;;;;;;61.17;23.73;;;-0.10;99.90;;;;;;10325039;28;20038;-86
2022/12/20 06:04:04;;;;;;;52.47;21.03;;;-0.10;99.90;;;;;;10355436;28;20057;-85
2022/12/20 06:09:04;;;;;;;55.60;22.30;;;0.00;99.90;;;;;;10323986;28;20065;-86
2022/12/20 06:14:05;;;;;;;58.70;24.00;;;0.00;99.90;;;;;;10322099;28;20041;-85
2022/12/20 06:19:06;;;;;;;62.60;26.30;;;0.00;99.90;;;;;;10323345;28;20415;-85
2022/12/20 06:24:07;;;;;;;63.00;26.17;;;0.00;99.90;;;;;;10323387;28;20038;-85
2022/12/20 06:29:12;;;;;;;63.77;24.77;;;0.00;99.90;;;;;;10323448;28;20133;-85
2022/12/20 06:34:13;;;;;;;60.42;27.13;;;-0.10;99.90;;;;;;10322979;28;20121;-85
2022/12/20 06:39:14;;;;;;;72.80;31.57;;;-0.10;99.90;;;;;;10322507;28;20054;-85
2022/12/20 06:44:14;;;;;;;85.17;36.00;;;-0.10;99.90;;;;;;10354118;28;20490;-85
2022/12/20 06:49:15;;;;;;;78.87;32.53;;;-0.10;99.90;;;;;;10320687;28;20398;-85
2022/12/20 06:54:15;;;;;;;112.90;42.97;;;-0.20;99.90;;;;;;10321861;28;20038;-85
2022/12/20 06:59:16;;;;;;;80.30;35.10;;;-0.10;99.90;;;;;;10320215;28;20486;-85
2022/12/20 07:04:17;;;;;;;110.90;45.90;;;-0.10;99.90;;;;;;10353807;28;20050;-85
2022/12/20 07:09:17;;;;;;;106.47;42.43;;;-0.10;99.90;;;;;;10321665;28;20034;-85
2022/12/20 07:14:18;;;;;;;75.37;29.90;;;-0.10;99.90;;;;;;10321718;28;20045;-85
2022/12/20 07:19:20;;;;;;;77.37;31.43;;;0.00;99.90;;;;;;10319754;28;20040;-85
2022/12/20 07:24:21;;;;;;;87.00;33.30;;;0.00;99.90;;;;;;10319226;28;20030;-85
2022/12/20 07:29:22;;;;;;;74.93;31.57;;;0.10;99.90;;;;;;10320197;28;20026;-85
2022/12/20 07:34:22;;;;;;;81.30;33.60;;;0.10;99.90;;;;;;10321477;28;20030;-86
2022/12/20 07:39:23;;;;;;;72.90;29.17;;;0.20;99.90;;;;;;10320045;28;20054;-85
2022/12/20 07:44:24;;;;;;;61.47;23.93;;;0.30;99.90;;;;;;10318548;28;20033;-85
2022/12/20 07:49:24;;;;;;;73.23;29.93;;;0.30;99.90;;;;;;10351209;28;20084;-85
2022/12/20 07:54:30;;;;;;;66.93;28.20;;;0.40;99.90;;;;;;10320512;28;20038;-86
2022/12/20 07:59:37;;;;;;;98.88;42.60;;;0.50;99.90;;;;;;10306086;28;20471;-85
2022/12/20 08:04:38;;;;;;;135.70;46.77;;;0.50;99.90;;;;;;10349996;28;20872;-85
2022/12/20 08:09:42;;;;;;;69.57;29.73;;;0.60;99.90;;;;;;10350738;28;20164;-86
2022/12/20 08:14:44;;;;;;;55.77;24.40;;;0.70;99.90;;;;;;10351012;28;20034;-86
2022/12/20 08:19:44;;;;;;;61.00;26.40;;;0.70;99.90;;;;;;10350646;28;20474;-84
2022/12/20 08:24:45;;;;;;;67.20;27.77;;;0.70;99.90;;;;;;10319224;28;20034;-86
2022/12/20 08:29:46;;;;;;;74.73;29.20;;;0.80;99.90;;;;;;10319441;28;20177;-85
2022/12/20 08:34:47;;;;;;;73.70;27.80;;;0.80;99.90;;;;;;10318088;28;20038;-86
2022/12/20 08:39:47;;;;;;;66.37;27.53;;;0.90;99.90;;;;;;10350293;28;20136;-85
2022/12/20 08:44:48;;;;;;;57.03;24.37;;;0.90;99.90;;;;;;10349994;28;20084;-85
2022/12/20 08:49:48;;;;;;;56.90;25.53;;;0.90;99.90;;;;;;10319135;28;20733;-85
2022/12/20 08:54:49;;;;;;;55.73;24.87;;;1.00;99.90;;;;;;10350384;28;20173;-85
2022/12/20 08:59:49;;;;;;;74.73;30.30;;;1.20;99.90;;;;;;10318982;28;20061;-84
2022/12/20 09:04:50;;;;;;;52.57;24.23;;;1.30;99.90;;;;;;10319296;28;20034;-86
2022/12/20 09:09:51;;;;;;;66.87;27.53;;;1.40;99.90;;;;;;10349747;28;20032;-84
2022/12/20 09:14:52;;;;;;;58.70;26.30;;;1.40;99.90;;;;;;10350010;28;20034;-86
2022/12/20 09:19:54;;;;;;;65.73;27.53;;;1.50;99.90;;;;;;10356275;28;20030;-86
2022/12/20 09:24:54;;;;;;;72.53;28.70;;;1.60;99.90;;;;;;10315031;28;20042;-87
2022/12/20 09:29:55;;;;;;;63.70;26.27;;;1.60;99.90;;;;;;10326291;28;20080;-86
2022/12/20 09:34:55;;;;;;;58.13;24.23;;;1.60;99.90;;;;;;10356604;28;20042;-86
2022/12/20 09:39:56;;;;;;;63.03;25.07;;;1.70;99.90;;;;;;10356139;28;20426;-86
2022/12/20 09:45:08;;;;;;;57.20;23.67;;;1.80;99.90;;;;;;10356703;28;20050;-86
2022/12/20 09:50:15;;;;;;;57.53;22.53;;;1.90;99.90;;;;;;10323459;28;20026;-86
2022/12/20 09:55:32;;;;;;;62.77;26.80;;;1.90;99.90;;;;;;10325086;28;20034;-86
2022/12/20 10:00:45;;;;;;;68.50;27.10;;;2.00;99.90;;;;;;10355578;28;20042;-87
2022/12/20 10:05:54;;;;;;;56.43;23.77;;;2.00;99.90;;;;;;10322911;28;20038;-88
2022/12/20 10:11:01;;;;;;;69.67;27.63;;;2.10;99.90;;;;;;10311315;28;20034;-86
2022/12/20 10:16:32;;;;;;;55.33;22.87;;;2.10;99.90;;;;;;10356159;28;20045;-87
2022/12/20 10:22:16;;;;;;;54.63;23.57;;;2.20;99.90;;;;;;10322436;28;20380;-87
2022/12/20 10:27:18;;;;;;;52.27;23.53;;;2.20;99.90;;;;;;10353632;28;20499;-87
2022/12/20 10:32:22;;;;;;;55.53;23.00;;;2.30;99.90;;;;;;10355227;28;20073;-88
2022/12/20 10:37:22;;;;;;;53.90;23.73;;;2.30;99.90;;;;;;10322692;28;20502;-87
2022/12/20 10:42:34;;;;;;;60.60;24.57;;;2.40;99.90;;;;;;10322404;28;20065;-87
2022/12/20 10:47:40;;;;;;;60.23;22.63;;;2.40;99.90;;;;;;10322416;28;20108;-87
2022/12/20 10:52:43;;;;;;;60.47;27.35;;;2.40;99.90;;;;;;10322406;28;20035;-87
2022/12/20 10:57:44;;;;;;;60.27;26.03;;;2.40;99.90;;;;;;10323378;28;20031;-87
2022/12/20 11:03:38;;;;;;;61.10;24.47;;;2.40;99.90;;;;;;10354944;28;20034;-88
2022/12/20 11:08:38;;;;;;;58.20;24.17;;;2.40;99.90;;;;;;10321165;28;20032;-88
2022/12/20 11:13:40;;;;;;;55.57;23.70;;;2.50;99.90;;;;;;10353557;28;20373;-87
2022/12/20 11:19:08;;;;;;;47.23;22.63;;;2.50;99.90;;;;;;10353966;28;20065;-87
2022/12/20 11:24:20;;;;;;;58.80;23.90;;;2.50;99.90;;;;;;10322259;28;20042;-88
2022/12/20 11:29:49;;;;;;;52.93;22.83;;;2.50;99.90;;;;;;10320576;28;20045;-87
2022/12/20 11:35:23;;;;;;;56.63;24.23;;;2.50;99.90;;;;;;10322161;28;20513;-86
2022/12/20 11:40:27;;;;;;;51.63;23.97;;;2.60;99.90;;;;;;10320141;28;20065;-88
2022/12/20 11:45:42;;;;;;;51.77;21.67;;;2.50;99.90;;;;;;10321567;28;20042;-88
2022/12/20 11:51:01;;;;;;;52.30;23.10;;;2.60;99.90;;;;;;10319295;28;20133;-87
2022/12/20 11:56:18;;;;;;;52.90;22.57;;;2.50;99.90;;;;;;10296525;28;20534;-87
2022/12/20 12:01:25;;;;;;;50.83;22.37;;;2.60;99.90;;;;;;10318908;28;20033;-87
2022/12/20 12:06:32;;;;;;;50.40;22.40;;;2.50;99.90;;;;;;10352086;28;20034;-87
2022/12/20 12:11:52;;;;;;;56.00;25.83;;;2.50;99.90;;;;;;10351658;28;20030;-87
2022/12/20 12:17:01;;;;;;;60.53;24.70;;;2.50;99.90;;;;;;10319257;28;20467;-88
2022/12/20 12:22:08;;;;;;;55.93;22.70;;;2.50;99.90;;;;;;10321192;28;20034;-87
2022/12/20 12:27:20;;;;;;;55.57;24.37;;;2.50;99.90;;;;;;10320058;28;20069;-88
2022/12/20 12:32:33;;;;;;;64.87;26.07;;;2.50;99.90;;;;;;10351886;28;20130;-86
2022/12/20 12:37:33;;;;;;;56.87;24.90;;;2.60;99.90;;;;;;10318579;28;20391;-89
2022/12/20 12:43:06;;;;;;;64.50;28.77;;;2.50;99.90;;;;;;10317791;28;20079;-87
2022/12/20 12:48:17;;;;;;;57.27;24.47;;;2.50;99.90;;;;;;10313585;28;20049;-87
2022/12/20 12:53:48;;;;;;;69.27;26.67;;;2.40;99.90;;;;;;10354909;28;20034;-88
2022/12/20 12:59:17;;;;;;;54.83;24.50;;;2.30;99.90;;;;;;10324125;28;20621;-87
2022/12/20 13:04:21;;;;;;;64.80;25.83;;;2.20;99.90;;;;;;10316134;28;20509;-89
2022/12/20 13:09:24;;;;;;;53.60;24.47;;;2.20;99.90;;;;;;10325166;28;20026;-87
2022/12/20 13:14:26;;;;;;;50.73;23.77;;;2.20;99.90;;;;;;10325104;28;20030;-88
2022/12/20 13:19:26;;;;;;;61.57;27.30;;;2.30;99.90;;;;;;10326636;28;20492;-87
2022/12/20 13:24:39;;;;;;;83.37;34.87;;;2.20;99.90;;;;;;10325003;28;20046;-87
2022/12/20 13:29:57;;;;;;;82.13;33.37;;;2.20;99.90;;;;;;10358025;28;20049;-87
2022/12/20 13:34:57;;;;;;;62.80;26.87;;;2.20;99.90;;;;;;10324026;28;20528;-87
2022/12/20 13:39:59;;;;;;;60.20;23.97;;;2.20;99.90;;;;;;10356016;28;20054;-85
2022/12/20 13:45:03;;;;;;;62.90;26.97;;;2.10;99.90;;;;;;10323385;28;20878;-86
2022/12/20 13:50:39;;;;;;;66.57;25.10;;;2.00;99.90;;;;;;10323021;28;20044;-87
2022/12/20 13:55:41;;;;;;;59.90;25.40;;;1.90;99.90;;;;;;10301762;28;20069;-86
2022/12/20 14:00:43;;;;;;;68.93;27.37;;;1.80;99.90;;;;;;10310091;28;20031;-87
2022/12/20 14:05:44;;;;;;;64.83;27.03;;;1.80;99.90;;;;;;10318159;28;20132;-88
2022/12/20 14:10:45;;;;;;;70.47;27.40;;;1.70;99.90;;;;;;10317055;28;20240;-86
2022/12/20 14:15:46;;;;;;;60.83;25.27;;;1.70;99.90;;;;;;10320741;28;20034;-87
2022/12/20 14:20:57;;;;;;;62.70;24.80;;;1.60;99.90;;;;;;10320113;28;20121;-85
2022/12/20 14:26:00;;;;;;;48.93;20.37;;;1.60;99.90;;;;;;10318336;28;20569;-85
2022/12/20 14:31:02;;;;;;;79.40;27.60;;;1.60;99.90;;;;;;10314193;28;20617;-86
2022/12/20 14:36:16;;;;;;;108.33;42.17;;;1.50;99.90;;;;;;10321278;28;20057;-85
2022/12/20 14:41:39;;;;;;;65.90;25.23;;;1.50;99.90;;;;;;10265237;28;1434546;-83
2022/12/20 14:46:45;;;;;;;92.33;34.40;;;1.40;99.90;;;;;;10321525;28;20038;-83
2022/12/20 14:51:46;;;;;;;61.00;26.37;;;1.40;99.90;;;;;;10320842;28;20034;-83
2022/12/20 14:56:50;;;;;;;63.23;26.77;;;1.40;99.90;;;;;;10319304;28;20042;-83
2022/12/20 15:01:51;;;;;;;66.70;26.90;;;1.30;99.90;;;;;;10353552;28;20030;-83
2022/12/20 15:06:52;;;;;;;63.70;28.00;;;1.30;99.90;;;;;;10318885;28;20053;-83
2022/12/20 15:11:55;;;;;;;62.10;25.67;;;1.30;99.90;;;;;;10319379;28;20517;-83
2022/12/20 15:16:57;;;;;;;67.77;29.03;;;1.30;99.90;;;;;;10352631;28;20129;-83
2022/12/20 15:21:58;;;;;;;68.97;30.63;;;1.30;99.90;;;;;;10302068;28;20034;-83
2022/12/20 15:26:59;;;;;;;64.27;28.17;;;1.40;99.90;;;;;;10314633;28;20574;-87
2022/12/20 15:32:16;;;;;;;67.00;30.57;;;1.30;99.90;;;;;;10319156;28;20030;-86
2022/12/20 15:37:17;;;;;;;68.63;31.33;;;1.30;99.90;;;;;;10321025;28;20042;-85
2022/12/20 15:42:19;;;;;;;68.13;28.67;;;1.30;99.90;;;;;;10319086;28;20060;-86
2022/12/20 15:47:19;;;;;;;60.00;27.90;;;1.30;99.90;;;;;;10320388;28;20105;-85
2022/12/20 15:52:22;;;;;;;65.83;29.83;;;1.30;99.90;;;;;;10313506;28;20018;-84
2022/12/20 15:57:23;;;;;;;66.80;29.77;;;1.30;99.90;;;;;;10350113;28;20033;-84
2022/12/20 16:02:26;;;;;;;75.80;29.53;;;1.20;99.90;;;;;;10309301;28;20053;-84
2022/12/20 16:07:26;;;;;;;74.97;30.03;;;1.20;99.90;;;;;;10317887;28;20521;-85
2022/12/20 16:12:33;;;;;;;77.20;32.67;;;1.10;99.90;;;;;;10317602;28;20034;-84
2022/12/20 16:17:33;;;;;;;74.87;31.20;;;1.10;99.90;;;;;;10317699;28;20113;-83
2022/12/20 16:22:34;;;;;;;74.30;31.47;;;1.10;99.90;;;;;;10318043;28;20401;-84
2022/12/20 16:27:34;;;;;;;88.00;37.40;;;1.00;99.90;;;;;;10321056;28;20141;-83
2022/12/20 16:32:35;;;;;;;92.33;37.33;;;1.00;99.90;;;;;;10327738;28;20038;-84
2022/12/20 16:37:35;;;;;;;84.60;34.27;;;0.90;99.90;;;;;;10325772;28;20045;-86
2022/12/20 16:42:36;;;;;;;86.10;37.30;;;0.90;99.90;;;;;;10324416;28;20808;-83
2022/12/20 16:47:37;;;;;;;85.03;35.83;;;0.90;99.90;;;;;;10312616;28;20098;-82
2022/12/20 16:52:37;;;;;;;83.80;34.50;;;0.80;99.90;;;;;;10325084;28;20565;-82
2022/12/20 16:57:38;;;;;;;86.40;36.30;;;0.80;99.90;;;;;;10315461;28;20425;-86
2022/12/20 17:02:38;;;;;;;89.90;36.97;;;0.80;99.90;;;;;;10323633;28;20046;-82
2022/12/20 17:07:39;;;;;;;102.57;37.10;;;0.80;99.90;;;;;;10318562;28;20042;-85
2022/12/20 17:12:40;;;;;;;85.73;35.87;;;0.80;99.90;;;;;;10325323;28;20041;-83
2022/12/20 17:17:40;;;;;;;117.53;46.70;;;0.80;99.90;;;;;;10321641;28;20026;-84
2022/12/20 17:22:41;;;;;;;105.40;42.00;;;0.80;99.90;;;;;;10318999;28;20395;-83
2022/12/20 17:27:42;;;;;;;96.57;38.27;;;0.80;99.90;;;;;;10322745;28;20045;-84
2022/12/20 17:32:42;;;;;;;129.00;47.60;;;0.80;99.90;;;;;;10319657;28;20035;-85
2022/12/20 17:37:43;;;;;;;93.40;35.07;;;0.80;99.90;;;;;;10319280;28;20039;-85
2022/12/20 17:42:44;;;;;;;90.60;34.03;;;0.80;99.90;;;;;;10350523;28;20206;-83
2022/12/20 17:47:45;;;;;;;88.40;34.87;;;0.80;99.90;;;;;;10351615;28;20026;-83
2022/12/20 17:52:46;;;;;;;98.30;39.60;;;0.80;99.90;;;;;;10320549;28;20046;-86
2022/12/20 17:57:47;;;;;;;109.37;40.53;;;0.70;99.90;;;;;;10318521;28;20039;-85
2022/12/20 18:02:47;;;;;;;107.93;41.23;;;0.80;99.90;;;;;;10318705;28;20690;-83
2022/12/20 18:07:53;;;;;;;91.77;35.63;;;0.80;99.90;;;;;;10318404;28;20462;-82
2022/12/20 18:12:53;;;;;;;99.93;38.40;;;0.70;99.90;;;;;;10318052;28;20474;-83
2022/12/20 18:17:54;;;;;;;92.50;37.43;;;0.70;99.90;;;;;;10318796;28;20030;-84
2022/12/20 18:22:55;;;;;;;84.23;32.30;;;0.70;99.90;;;;;;10318912;28;20532;-85
2022/12/20 18:27:55;;;;;;;91.70;37.80;;;0.70;99.90;;;;;;10318891;28;20034;-82
2022/12/20 18:32:56;;;;;;;84.87;34.53;;;0.70;99.90;;;;;;10318761;28;20434;-83
2022/12/20 18:37:57;;;;;;;93.33;36.47;;;0.70;99.90;;;;;;10317559;28;20509;-84
2022/12/20 18:42:57;;;;;;;79.67;33.23;;;0.60;99.90;;;;;;10318468;28;20112;-83
2022/12/20 18:47:58;;;;;;;84.53;35.33;;;0.60;99.90;;;;;;10347353;28;20034;-84
2022/12/20 18:52:58;;;;;;;91.07;38.83;;;0.60;99.90;;;;;;10319168;28;20498;-85
2022/12/20 18:57:59;;;;;;;87.17;36.30;;;0.60;99.90;;;;;;10321198;28;20040;-84
2022/12/20 19:03:01;;;;;;;87.60;37.17;;;0.50;99.90;;;;;;10324229;28;20114;-83
2022/12/20 19:08:01;;;;;;;84.90;34.93;;;0.50;99.90;;;;;;10324307;28;20036;-83
2022/12/20 19:13:02;;;;;;;83.20;36.03;;;0.40;99.90;;;;;;10317779;28;20482;-84
2022/12/20 19:18:03;;;;;;;88.57;36.87;;;0.40;99.90;;;;;;10315137;28;20711;-85
2022/12/20 19:23:04;;;;;;;87.70;35.00;;;0.40;99.90;;;;;;10319476;28;20042;-85
2022/12/20 19:28:05;;;;;;;85.73;35.70;;;0.30;99.90;;;;;;10317612;28;20034;-83
2022/12/20 19:33:05;;;;;;;84.47;32.50;;;0.30;99.90;;;;;;10315904;28;20034;-84
2022/12/20 19:38:06;;;;;;;86.03;36.47;;;0.30;99.90;;;;;;10318798;28;20118;-86
2022/12/20 19:43:07;;;;;;;92.77;36.93;;;0.20;99.90;;;;;;10316024;28;20046;-84
2022/12/20 19:48:09;;;;;;;84.70;37.33;;;0.20;99.90;;;;;;10317925;28;20034;-84
2022/12/20 19:53:10;;;;;;;94.37;37.37;;;0.20;99.90;;;;;;10319917;28;20027;-85
2022/12/20 19:58:11;;;;;;;87.63;36.20;;;0.30;99.90;;;;;;10317647;28;20033;-84
2022/12/20 20:03:11;;;;;;;82.53;37.07;;;0.30;99.90;;;;;;10313417;28;20042;-84
2022/12/20 20:08:12;;;;;;;90.97;37.77;;;0.30;99.90;;;;;;10318206;28;20034;-84
2022/12/20 20:13:14;;;;;;;87.93;36.50;;;0.30;99.90;;;;;;10314587;28;20030;-85
2022/12/20 20:18:15;;;;;;;87.53;35.90;;;0.30;99.90;;;;;;10317635;28;20040;-86
2022/12/20 20:23:16;;;;;;;86.53;34.37;;;0.40;99.90;;;;;;10347412;28;20034;-84
2022/12/20 20:28:17;;;;;;;86.07;32.90;;;0.40;99.90;;;;;;10349368;28;20610;-85
2022/12/20 20:33:17;;;;;;;106.53;41.97;;;0.40;99.90;;;;;;10318600;28;20030;-85
2022/12/20 20:38:18;;;;;;;95.03;39.97;;;0.40;99.90;;;;;;10309927;28;20042;-86
2022/12/20 20:43:19;;;;;;;87.57;36.73;;;0.40;99.90;;;;;;10338520;28;20670;-85
2022/12/20 20:48:20;;;;;;;100.87;39.97;;;0.40;99.90;;;;;;10315363;28;20038;-86
2022/12/20 20:53:21;;;;;;;104.63;40.43;;;0.50;99.90;;;;;;10314111;28;20042;-84
2022/12/20 20:58:23;;;;;;;94.57;40.20;;;0.50;99.90;;;;;;10349823;28;20023;-84
2022/12/20 21:03:25;;;;;;;105.13;41.77;;;0.50;99.90;;;;;;10317546;28;20049;-87
2022/12/20 21:08:26;;;;;;;95.13;38.53;;;0.50;99.90;;;;;;10334546;28;20031;-83
2022/12/20 21:13:27;;;;;;;84.80;35.93;;;0.50;99.90;;;;;;10316116;28;20034;-85
2022/12/20 21:18:27;;;;;;;83.47;33.70;;;0.50;99.90;;;;;;10312039;28;20070;-85
2022/12/20 21:23:28;;;;;;;74.80;32.53;;;0.50;99.90;;;;;;10323822;28;20034;-85
2022/12/20 21:28:30;;;;;;;84.30;33.77;;;0.60;99.90;;;;;;10323890;28;20113;-87
2022/12/20 21:33:31;;;;;;;81.63;34.67;;;0.60;99.90;;;;;;10318884;28;20030;-84
2022/12/20 21:38:32;;;;;;;68.63;30.07;;;0.60;99.90;;;;;;10309875;28;20046;-83
2022/12/20 21:43:33;;;;;;;81.87;32.10;;;0.60;99.90;;;;;;10322008;28;20046;-86
2022/12/20 21:48:34;;;;;;;89.73;37.80;;;0.50;99.90;;;;;;10355830;28;20482;-86
2022/12/20 21:53:43;;;;;;;87.17;34.47;;;0.50;99.90;;;;;;10323860;28;20038;-86
2022/12/20 21:58:44;;;;;;;90.07;37.63;;;0.40;99.90;;;;;;10315857;28;20104;-84
2022/12/20 22:03:44;;;;;;;87.90;33.63;;;0.40;99.90;;;;;;10323425;28;20089;-84
2022/12/20 22:08:45;;;;;;;91.07;37.37;;;0.40;99.90;;;;;;10322330;28;20643;-87
2022/12/20 22:13:46;;;;;;;78.20;32.30;;;0.40;99.90;;;;;;10320475;28;20552;-86
2022/12/20 22:18:48;;;;;;;76.07;32.70;;;0.40;99.90;;;;;;10322924;28;20042;-85
2022/12/20 22:23:49;;;;;;;82.67;34.23;;;0.40;99.90;;;;;;10308394;28;20038;-87
2022/12/20 22:28:58;;;;;;;86.80;34.33;;;0.50;99.90;;;;;;10323598;28;20684;-84
2022/12/20 22:33:59;;;;;;;88.37;35.37;;;0.50;99.90;;;;;;10323099;28;20060;-86
2022/12/20 22:38:59;;;;;;;82.90;35.23;;;0.60;99.90;;;;;;10347343;28;20058;-89
2022/12/20 22:44:00;;;;;;;81.00;33.17;;;0.60;99.90;;;;;;10320642;28;20061;-84
2022/12/20 22:49:01;;;;;;;79.90;32.87;;;0.60;99.90;;;;;;10322261;28;20045;-87
2022/12/20 22:54:02;;;;;;;66.10;28.87;;;0.60;99.90;;;;;;10311541;28;20431;-85
2022/12/20 22:59:02;;;;;;;79.77;33.13;;;0.70;99.90;;;;;;10318092;28;20022;-84
2022/12/20 23:04:03;;;;;;;75.37;32.10;;;0.70;99.90;;;;;;10321795;28;20042;-87
2022/12/20 23:09:03;;;;;;;75.53;31.37;;;0.70;99.90;;;;;;10320078;28;20028;-88
2022/12/20 23:19:24;;;;;;;84.43;34.30;;;0.70;99.90;;;;;;10321377;28;20116;-83
2022/12/20 23:24:25;;;;;;;80.30;35.37;;;0.60;99.90;;;;;;10314386;28;20042;-86
2022/12/20 23:29:25;;;;;;;86.40;33.73;;;0.50;99.90;;;;;;10321133;28;20031;-86
2022/12/20 23:34:26;;;;;;;90.40;35.37;;;0.40;99.90;;;;;;10318429;28;20041;-84
2022/12/20 23:39:27;;;;;;;82.73;33.53;;;0.40;99.90;;;;;;10315685;28;20054;-84
2022/12/20 23:44:28;;;;;;;87.97;33.90;;;0.30;99.90;;;;;;10318578;28;20046;-84
2022/12/20 23:49:28;;;;;;;78.20;32.50;;;0.30;99.90;;;;;;10318337;28;20039;-84
2022/12/20 23:54:29;;;;;;;78.37;30.60;;;0.20;99.90;;;;;;10318731;28;20035;-83
2022/12/20 23:59:29;;;;;;;76.03;31.23;;;0.20;99.90;;;;;;10318415;28;20555;-84
